sensor_id;sensor_type;location;lat;lon;timestamp;P1;durP1;ratioP1;P2;durP2;ratioP2
73132;SDS011;61320;52.008;4.530;2022-11-15T00:01:47;39.27;;;38.69;;
73132;SDS011;61320;52.008;4.530;2022-11-15T00:04:13;39.82;;;38.94;;
73132;SDS011;61320;52.008;4.530;2022-11-15T00:06:38;40.57;;;39.17;;
73132;SDS011;61320;52.008;4.530;2022-11-15T00:09:04;39.47;;;38.23;;
73132;SDS011;61320;52.008;4.530;2022-11-15T00:11:30;39.10;;;37.96;;
73132;SDS011;61320;52.008;4.530;2022-11-15T00:13:56;40.46;;;39.37;;
73132;SDS011;61320;52.008;4.530;2022-11-15T00:16:22;40.31;;;39.74;;
73132;SDS011;61320;52.008;4.530;2022-11-15T00:18:48;40.87;;;39.89;;
73132;SDS011;61320;52.008;4.530;2022-11-15T00:21:14;39.77;;;39.13;;
73132;SDS011;61320;52.008;4.530;2022-11-15T00:23:40;39.07;;;38.45;;
73132;SDS011;61320;52.008;4.530;2022-11-15T00:26:06;40.64;;;39.85;;
73132;SDS011;61320;52.008;4.530;2022-11-15T00:28:32;39.15;;;38.52;;
73132;SDS011;61320;52.008;4.530;2022-11-15T00:31:01;39.83;;;39.05;;
73132;SDS011;61320;52.008;4.530;2022-11-15T00:33:28;40.13;;;39.39;;
73132;SDS011;61320;52.008;4.530;2022-11-15T00:36:02;39.10;;;38.49;;
73132;SDS011;61320;52.008;4.530;2022-11-15T00:38:33;39.74;;;38.78;;
73132;SDS011;61320;52.008;4.530;2022-11-15T00:41:00;41.48;;;40.30;;
73132;SDS011;61320;52.008;4.530;2022-11-15T00:43:27;39.70;;;38.61;;
73132;SDS011;61320;52.008;4.530;2022-11-15T00:45:52;41.27;;;39.69;;
73132;SDS011;61320;52.008;4.530;2022-11-15T00:48:18;41.84;;;40.40;;
73132;SDS011;61320;52.008;4.530;2022-11-15T00:50:43;42.22;;;40.38;;
73132;SDS011;61320;52.008;4.530;2022-11-15T00:53:09;41.97;;;40.56;;
73132;SDS011;61320;52.008;4.530;2022-11-15T00:55:35;42.78;;;41.16;;
73132;SDS011;61320;52.008;4.530;2022-11-15T00:58:00;42.57;;;40.74;;
73132;SDS011;61320;52.008;4.530;2022-11-15T01:00:26;41.20;;;39.51;;
73132;SDS011;61320;52.008;4.530;2022-11-15T01:02:51;42.08;;;40.24;;
73132;SDS011;61320;52.008;4.530;2022-11-15T01:05:17;42.34;;;40.80;;
73132;SDS011;61320;52.008;4.530;2022-11-15T01:07:42;43.68;;;41.89;;
73132;SDS011;61320;52.008;4.530;2022-11-15T01:10:08;42.25;;;40.58;;
73132;SDS011;61320;52.008;4.530;2022-11-15T01:12:34;43.25;;;41.50;;
73132;SDS011;61320;52.008;4.530;2022-11-15T01:15:00;43.04;;;40.73;;
73132;SDS011;61320;52.008;4.530;2022-11-15T01:17:25;41.81;;;39.91;;
73132;SDS011;61320;52.008;4.530;2022-11-15T01:19:51;40.68;;;38.67;;
73132;SDS011;61320;52.008;4.530;2022-11-15T01:22:16;42.36;;;40.39;;
73132;SDS011;61320;52.008;4.530;2022-11-15T01:24:42;45.01;;;42.42;;
73132;SDS011;61320;52.008;4.530;2022-11-15T01:27:08;44.43;;;42.28;;
73132;SDS011;61320;52.008;4.530;2022-11-15T01:29:33;45.30;;;43.45;;
73132;SDS011;61320;52.008;4.530;2022-11-15T01:31:59;45.05;;;42.60;;
73132;SDS011;61320;52.008;4.530;2022-11-15T01:34:24;43.34;;;41.50;;
73132;SDS011;61320;52.008;4.530;2022-11-15T01:36:50;43.00;;;41.04;;
73132;SDS011;61320;52.008;4.530;2022-11-15T01:39:16;43.71;;;42.06;;
73132;SDS011;61320;52.008;4.530;2022-11-15T01:41:41;45.95;;;43.54;;
73132;SDS011;61320;52.008;4.530;2022-11-15T01:47:20;44.45;;;42.95;;
73132;SDS011;61320;52.008;4.530;2022-11-15T01:49:59;47.18;;;44.52;;
73132;SDS011;61320;52.008;4.530;2022-11-15T01:52:29;43.40;;;41.60;;
73132;SDS011;61320;52.008;4.530;2022-11-15T01:57:34;45.04;;;43.37;;
73132;SDS011;61320;52.008;4.530;2022-11-15T02:00:02;42.77;;;41.55;;
73132;SDS011;61320;52.008;4.530;2022-11-15T02:02:29;44.79;;;42.94;;
73132;SDS011;61320;52.008;4.530;2022-11-15T02:04:55;44.21;;;42.90;;
73132;SDS011;61320;52.008;4.530;2022-11-15T02:07:21;44.50;;;43.11;;
73132;SDS011;61320;52.008;4.530;2022-11-15T02:09:47;44.33;;;42.96;;
73132;SDS011;61320;52.008;4.530;2022-11-15T02:12:16;45.28;;;43.79;;
73132;SDS011;61320;52.008;4.530;2022-11-15T02:14:46;43.87;;;42.72;;
73132;SDS011;61320;52.008;4.530;2022-11-15T02:22:37;44.88;;;43.42;;
73132;SDS011;61320;52.008;4.530;2022-11-15T02:28:42;44.76;;;43.37;;
73132;SDS011;61320;52.008;4.530;2022-11-15T02:42:25;42.28;;;41.14;;
73132;SDS011;61320;52.008;4.530;2022-11-15T02:45:13;44.26;;;42.87;;
73132;SDS011;61320;52.008;4.530;2022-11-15T02:47:46;42.35;;;41.25;;
73132;SDS011;61320;52.008;4.530;2022-11-15T02:50:20;43.19;;;41.82;;
73132;SDS011;61320;52.008;4.530;2022-11-15T02:52:49;41.07;;;40.14;;
73132;SDS011;61320;52.008;4.530;2022-11-15T02:55:26;39.96;;;39.13;;
73132;SDS011;61320;52.008;4.530;2022-11-15T02:58:01;42.41;;;41.48;;
73132;SDS011;61320;52.008;4.530;2022-11-15T03:00:54;39.74;;;39.01;;
73132;SDS011;61320;52.008;4.530;2022-11-15T03:03:35;37.85;;;37.11;;
73132;SDS011;61320;52.008;4.530;2022-11-15T03:06:46;38.23;;;37.57;;
73132;SDS011;61320;52.008;4.530;2022-11-15T03:09:34;38.18;;;37.25;;
73132;SDS011;61320;52.008;4.530;2022-11-15T03:12:07;35.97;;;35.15;;
73132;SDS011;61320;52.008;4.530;2022-11-15T03:15:25;36.89;;;36.18;;
73132;SDS011;61320;52.008;4.530;2022-11-15T03:17:36;35.05;;;34.43;;
73132;SDS011;61320;52.008;4.530;2022-11-15T03:20:11;33.74;;;33.28;;
73132;SDS011;61320;52.008;4.530;2022-11-15T03:22:42;35.44;;;34.97;;
73132;SDS011;61320;52.008;4.530;2022-11-15T03:25:11;33.41;;;33.02;;
73132;SDS011;61320;52.008;4.530;2022-11-15T03:27:46;34.66;;;34.21;;
73132;SDS011;61320;52.008;4.530;2022-11-15T03:30:16;33.75;;;33.13;;
73132;SDS011;61320;52.008;4.530;2022-11-15T03:32:47;32.74;;;32.12;;
73132;SDS011;61320;52.008;4.530;2022-11-15T03:35:27;31.17;;;30.76;;
73132;SDS011;61320;52.008;4.530;2022-11-15T03:40:44;29.45;;;29.34;;
73132;SDS011;61320;52.008;4.530;2022-11-15T03:43:25;30.37;;;30.02;;
73132;SDS011;61320;52.008;4.530;2022-11-15T03:46:01;27.68;;;27.48;;
73132;SDS011;61320;52.008;4.530;2022-11-15T03:48:47;29.23;;;28.59;;
73132;SDS011;61320;52.008;4.530;2022-11-15T03:51:17;28.23;;;27.92;;
73132;SDS011;61320;52.008;4.530;2022-11-15T03:53:44;27.76;;;27.71;;
73132;SDS011;61320;52.008;4.530;2022-11-15T03:56:11;26.12;;;26.09;;
73132;SDS011;61320;52.008;4.530;2022-11-15T03:58:36;26.03;;;25.83;;
73132;SDS011;61320;52.008;4.530;2022-11-15T04:01:01;25.69;;;25.23;;
73132;SDS011;61320;52.008;4.530;2022-11-15T04:03:27;24.03;;;23.99;;
73132;SDS011;61320;52.008;4.530;2022-11-15T04:05:52;24.91;;;24.49;;
73132;SDS011;61320;52.008;4.530;2022-11-15T04:08:18;23.07;;;22.81;;
73132;SDS011;61320;52.008;4.530;2022-11-15T04:10:43;23.21;;;22.88;;
73132;SDS011;61320;52.008;4.530;2022-11-15T04:13:09;23.27;;;22.89;;
73132;SDS011;61320;52.008;4.530;2022-11-15T04:15:35;22.43;;;22.27;;
73132;SDS011;61320;52.008;4.530;2022-11-15T04:18:01;22.40;;;22.31;;
73132;SDS011;61320;52.008;4.530;2022-11-15T04:20:28;22.07;;;22.01;;
73132;SDS011;61320;52.008;4.530;2022-11-15T04:23:15;20.77;;;20.56;;
73132;SDS011;61320;52.008;4.530;2022-11-15T04:26:03;21.36;;;21.19;;
73132;SDS011;61320;52.008;4.530;2022-11-15T04:28:32;21.07;;;20.71;;
73132;SDS011;61320;52.008;4.530;2022-11-15T04:30:58;19.72;;;19.53;;
73132;SDS011;61320;52.008;4.530;2022-11-15T04:33:24;18.74;;;18.72;;
73132;SDS011;61320;52.008;4.530;2022-11-15T04:35:50;18.08;;;18.02;;
73132;SDS011;61320;52.008;4.530;2022-11-15T04:38:34;17.80;;;17.77;;
73132;SDS011;61320;52.008;4.530;2022-11-15T04:41:01;17.63;;;17.56;;
73132;SDS011;61320;52.008;4.530;2022-11-15T04:43:27;17.03;;;17.01;;
73132;SDS011;61320;52.008;4.530;2022-11-15T04:45:54;16.73;;;16.69;;
73132;SDS011;61320;52.008;4.530;2022-11-15T04:48:19;16.49;;;16.49;;
73132;SDS011;61320;52.008;4.530;2022-11-15T04:50:47;16.47;;;16.47;;
73132;SDS011;61320;52.008;4.530;2022-11-15T04:53:13;15.65;;;15.65;;
73132;SDS011;61320;52.008;4.530;2022-11-15T04:55:38;16.21;;;16.21;;
73132;SDS011;61320;52.008;4.530;2022-11-15T04:58:04;16.64;;;16.56;;
73132;SDS011;61320;52.008;4.530;2022-11-15T05:00:29;16.21;;;16.19;;
73132;SDS011;61320;52.008;4.530;2022-11-15T05:02:55;16.10;;;16.10;;
73132;SDS011;61320;52.008;4.530;2022-11-15T05:05:40;16.39;;;16.39;;
73132;SDS011;61320;52.008;4.530;2022-11-15T05:08:06;16.43;;;16.41;;
73132;SDS011;61320;52.008;4.530;2022-11-15T05:10:34;16.09;;;16.09;;
73132;SDS011;61320;52.008;4.530;2022-11-15T05:12:59;16.67;;;16.65;;
73132;SDS011;61320;52.008;4.530;2022-11-15T05:15:25;16.29;;;16.15;;
73132;SDS011;61320;52.008;4.530;2022-11-15T05:17:50;15.88;;;15.88;;
73132;SDS011;61320;52.008;4.530;2022-11-15T05:20:15;15.38;;;15.38;;
73132;SDS011;61320;52.008;4.530;2022-11-15T05:22:41;15.59;;;15.57;;
73132;SDS011;61320;52.008;4.530;2022-11-15T05:25:07;15.01;;;15.01;;
73132;SDS011;61320;52.008;4.530;2022-11-15T05:27:33;14.92;;;14.92;;
73132;SDS011;61320;52.008;4.530;2022-11-15T05:29:59;15.13;;;15.12;;
73132;SDS011;61320;52.008;4.530;2022-11-15T05:32:24;15.35;;;15.33;;
73132;SDS011;61320;52.008;4.530;2022-11-15T05:34:50;14.70;;;14.70;;
73132;SDS011;61320;52.008;4.530;2022-11-15T05:37:16;14.68;;;14.68;;
73132;SDS011;61320;52.008;4.530;2022-11-15T05:39:43;14.08;;;14.08;;
73132;SDS011;61320;52.008;4.530;2022-11-15T05:42:11;14.56;;;14.56;;
73132;SDS011;61320;52.008;4.530;2022-11-15T05:44:40;14.02;;;14.02;;
73132;SDS011;61320;52.008;4.530;2022-11-15T05:47:14;14.32;;;14.32;;
73132;SDS011;61320;52.008;4.530;2022-11-15T05:49:45;13.65;;;13.65;;
73132;SDS011;61320;52.008;4.530;2022-11-15T05:52:15;13.14;;;13.14;;
73132;SDS011;61320;52.008;4.530;2022-11-15T05:54:44;13.29;;;13.29;;
73132;SDS011;61320;52.008;4.530;2022-11-15T05:57:13;12.45;;;12.45;;
73132;SDS011;61320;52.008;4.530;2022-11-15T05:59:38;12.64;;;12.64;;
73132;SDS011;61320;52.008;4.530;2022-11-15T06:02:06;11.69;;;11.69;;
73132;SDS011;61320;52.008;4.530;2022-11-15T06:04:34;11.71;;;11.71;;
73132;SDS011;61320;52.008;4.530;2022-11-15T06:06:59;11.58;;;11.58;;
73132;SDS011;61320;52.008;4.530;2022-11-15T06:09:25;10.84;;;10.84;;
73132;SDS011;61320;52.008;4.530;2022-11-15T06:11:51;10.96;;;10.96;;
73132;SDS011;61320;52.008;4.530;2022-11-15T06:14:16;10.47;;;10.47;;
73132;SDS011;61320;52.008;4.530;2022-11-15T06:16:42;11.01;;;11.01;;
73132;SDS011;61320;52.008;4.530;2022-11-15T06:19:07;14.15;;;14.09;;
73132;SDS011;61320;52.008;4.530;2022-11-15T06:21:32;12.21;;;12.08;;
73132;SDS011;61320;52.008;4.530;2022-11-15T06:23:58;10.97;;;10.95;;
73132;SDS011;61320;52.008;4.530;2022-11-15T06:26:23;11.95;;;11.95;;
73132;SDS011;61320;52.008;4.530;2022-11-15T06:28:49;13.59;;;13.59;;
73132;SDS011;61320;52.008;4.530;2022-11-15T06:31:14;13.31;;;13.28;;
73132;SDS011;61320;52.008;4.530;2022-11-15T06:33:40;12.65;;;12.56;;
73132;SDS011;61320;52.008;4.530;2022-11-15T06:36:07;12.67;;;12.57;;
73132;SDS011;61320;52.008;4.530;2022-11-15T06:38:35;11.72;;;11.68;;
73132;SDS011;61320;52.008;4.530;2022-11-15T06:41:05;9.47;;;9.47;;
73132;SDS011;61320;52.008;4.530;2022-11-15T06:43:34;9.02;;;9.01;;
73132;SDS011;61320;52.008;4.530;2022-11-15T06:46:00;7.85;;;7.85;;
73132;SDS011;61320;52.008;4.530;2022-11-15T06:48:27;9.18;;;9.15;;
73132;SDS011;61320;52.008;4.530;2022-11-15T06:50:55;10.01;;;9.95;;
73132;SDS011;61320;52.008;4.530;2022-11-15T06:53:23;12.39;;;12.29;;
73132;SDS011;61320;52.008;4.530;2022-11-15T06:55:49;11.92;;;11.79;;
73132;SDS011;61320;52.008;4.530;2022-11-15T06:58:14;9.57;;;9.49;;
73132;SDS011;61320;52.008;4.530;2022-11-15T07:00:40;9.68;;;9.56;;
73132;SDS011;61320;52.008;4.530;2022-11-15T07:03:06;7.86;;;7.76;;
73132;SDS011;61320;52.008;4.530;2022-11-15T07:05:32;7.61;;;7.55;;
73132;SDS011;61320;52.008;4.530;2022-11-15T07:07:58;7.35;;;7.33;;
73132;SDS011;61320;52.008;4.530;2022-11-15T07:10:25;8.05;;;8.05;;
73132;SDS011;61320;52.008;4.530;2022-11-15T07:12:52;7.88;;;7.85;;
73132;SDS011;61320;52.008;4.530;2022-11-15T07:15:20;7.55;;;7.54;;
73132;SDS011;61320;52.008;4.530;2022-11-15T07:17:47;6.41;;;6.39;;
73132;SDS011;61320;52.008;4.530;2022-11-15T07:20:13;6.38;;;6.38;;
73132;SDS011;61320;52.008;4.530;2022-11-15T07:22:40;6.18;;;6.17;;
73132;SDS011;61320;52.008;4.530;2022-11-15T07:25:05;6.64;;;6.64;;
73132;SDS011;61320;52.008;4.530;2022-11-15T07:27:31;6.41;;;6.41;;
73132;SDS011;61320;52.008;4.530;2022-11-15T07:29:57;6.29;;;6.29;;
73132;SDS011;61320;52.008;4.530;2022-11-15T07:32:22;6.61;;;6.61;;
73132;SDS011;61320;52.008;4.530;2022-11-15T07:34:48;6.91;;;6.91;;
73132;SDS011;61320;52.008;4.530;2022-11-15T07:37:13;6.70;;;6.70;;
73132;SDS011;61320;52.008;4.530;2022-11-15T07:39:39;6.81;;;6.81;;
73132;SDS011;61320;52.008;4.530;2022-11-15T07:42:04;6.97;;;6.97;;
73132;SDS011;61320;52.008;4.530;2022-11-15T07:44:48;6.69;;;6.69;;
73132;SDS011;61320;52.008;4.530;2022-11-15T07:47:14;6.91;;;6.91;;
73132;SDS011;61320;52.008;4.530;2022-11-15T07:49:39;6.78;;;6.78;;
73132;SDS011;61320;52.008;4.530;2022-11-15T07:52:05;7.01;;;7.01;;
73132;SDS011;61320;52.008;4.530;2022-11-15T07:54:31;6.81;;;6.81;;
73132;SDS011;61320;52.008;4.530;2022-11-15T07:56:56;6.94;;;6.94;;
73132;SDS011;61320;52.008;4.530;2022-11-15T07:59:22;6.46;;;6.46;;
73132;SDS011;61320;52.008;4.530;2022-11-15T08:01:47;6.21;;;6.21;;
73132;SDS011;61320;52.008;4.530;2022-11-15T08:04:13;6.23;;;6.23;;
73132;SDS011;61320;52.008;4.530;2022-11-15T08:06:38;6.27;;;6.27;;
73132;SDS011;61320;52.008;4.530;2022-11-15T08:09:04;6.22;;;6.22;;
73132;SDS011;61320;52.008;4.530;2022-11-15T08:11:29;6.06;;;6.06;;
73132;SDS011;61320;52.008;4.530;2022-11-15T08:13:55;6.32;;;6.32;;
73132;SDS011;61320;52.008;4.530;2022-11-15T08:16:20;6.82;;;6.82;;
73132;SDS011;61320;52.008;4.530;2022-11-15T08:18:46;7.56;;;7.56;;
73132;SDS011;61320;52.008;4.530;2022-11-15T08:21:12;8.21;;;8.21;;
73132;SDS011;61320;52.008;4.530;2022-11-15T08:23:43;8.60;;;8.60;;
73132;SDS011;61320;52.008;4.530;2022-11-15T08:26:09;9.03;;;9.03;;
73132;SDS011;61320;52.008;4.530;2022-11-15T08:28:34;9.14;;;9.12;;
73132;SDS011;61320;52.008;4.530;2022-11-15T08:31:00;9.00;;;8.99;;
73132;SDS011;61320;52.008;4.530;2022-11-15T08:33:26;9.06;;;9.06;;
73132;SDS011;61320;52.008;4.530;2022-11-15T08:35:55;8.86;;;8.86;;
73132;SDS011;61320;52.008;4.530;2022-11-15T08:38:21;8.56;;;8.56;;
73132;SDS011;61320;52.008;4.530;2022-11-15T08:40:47;8.39;;;8.39;;
73132;SDS011;61320;52.008;4.530;2022-11-15T08:43:24;8.83;;;8.83;;
73132;SDS011;61320;52.008;4.530;2022-11-15T08:45:49;9.74;;;9.74;;
73132;SDS011;61320;52.008;4.530;2022-11-15T08:48:14;9.34;;;9.34;;
73132;SDS011;61320;52.008;4.530;2022-11-15T08:50:40;9.56;;;9.56;;
73132;SDS011;61320;52.008;4.530;2022-11-15T08:53:08;8.90;;;8.90;;
73132;SDS011;61320;52.008;4.530;2022-11-15T08:55:38;8.45;;;8.45;;
73132;SDS011;61320;52.008;4.530;2022-11-15T08:58:07;7.97;;;7.97;;
73132;SDS011;61320;52.008;4.530;2022-11-15T09:00:32;8.60;;;8.60;;
73132;SDS011;61320;52.008;4.530;2022-11-15T09:02:58;8.05;;;8.05;;
73132;SDS011;61320;52.008;4.530;2022-11-15T09:05:24;7.67;;;7.67;;
73132;SDS011;61320;52.008;4.530;2022-11-15T09:07:54;7.91;;;7.91;;
73132;SDS011;61320;52.008;4.530;2022-11-15T09:10:23;8.34;;;8.34;;
73132;SDS011;61320;52.008;4.530;2022-11-15T09:12:49;8.21;;;8.21;;
73132;SDS011;61320;52.008;4.530;2022-11-15T09:15:15;8.12;;;8.12;;
73132;SDS011;61320;52.008;4.530;2022-11-15T09:17:41;8.53;;;8.53;;
73132;SDS011;61320;52.008;4.530;2022-11-15T09:20:07;8.00;;;8.00;;
73132;SDS011;61320;52.008;4.530;2022-11-15T09:22:33;8.77;;;8.77;;
73132;SDS011;61320;52.008;4.530;2022-11-15T09:25:01;7.75;;;7.74;;
73132;SDS011;61320;52.008;4.530;2022-11-15T09:27:31;7.70;;;7.70;;
73132;SDS011;61320;52.008;4.530;2022-11-15T09:29:56;7.84;;;7.84;;
73132;SDS011;61320;52.008;4.530;2022-11-15T09:32:43;7.54;;;7.54;;
73132;SDS011;61320;52.008;4.530;2022-11-15T09:35:09;7.44;;;7.44;;
73132;SDS011;61320;52.008;4.530;2022-11-15T09:37:34;7.86;;;7.86;;
73132;SDS011;61320;52.008;4.530;2022-11-15T09:40:00;7.61;;;7.61;;
73132;SDS011;61320;52.008;4.530;2022-11-15T09:53:14;5.86;;;5.86;;
73132;SDS011;61320;52.008;4.530;2022-11-15T09:55:55;5.92;;;5.92;;
73132;SDS011;61320;52.008;4.530;2022-11-15T10:04:22;5.46;;;5.46;;
73132;SDS011;61320;52.008;4.530;2022-11-15T10:12:48;5.09;;;5.09;;
73132;SDS011;61320;52.008;4.530;2022-11-15T10:15:18;4.76;;;4.76;;
73132;SDS011;61320;52.008;4.530;2022-11-15T10:20:34;5.30;;;5.30;;
73132;SDS011;61320;52.008;4.530;2022-11-15T10:23:13;4.98;;;4.98;;
73132;SDS011;61320;52.008;4.530;2022-11-15T10:25:42;4.93;;;4.93;;
73132;SDS011;61320;52.008;4.530;2022-11-15T10:31:01;5.28;;;5.28;;
73132;SDS011;61320;52.008;4.530;2022-11-15T10:38:33;5.09;;;5.09;;
73132;SDS011;61320;52.008;4.530;2022-11-15T10:41:16;4.79;;;4.79;;
73132;SDS011;61320;52.008;4.530;2022-11-15T10:46:32;4.78;;;4.78;;
73132;SDS011;61320;52.008;4.530;2022-11-15T10:49:14;4.76;;;4.76;;
73132;SDS011;61320;52.008;4.530;2022-11-15T10:51:53;4.50;;;4.50;;
73132;SDS011;61320;52.008;4.530;2022-11-15T10:57:36;4.33;;;4.33;;
73132;SDS011;61320;52.008;4.530;2022-11-15T10:59:59;4.40;;;4.40;;
73132;SDS011;61320;52.008;4.530;2022-11-15T11:05:32;4.18;;;4.18;;
73132;SDS011;61320;52.008;4.530;2022-11-15T11:08:04;3.91;;;3.91;;
73132;SDS011;61320;52.008;4.530;2022-11-15T11:13:23;3.66;;;3.64;;
73132;SDS011;61320;52.008;4.530;2022-11-15T11:24:35;3.42;;;3.42;;
73132;SDS011;61320;52.008;4.530;2022-11-15T11:29:37;3.10;;;3.08;;
73132;SDS011;61320;52.008;4.530;2022-11-15T11:32:55;2.93;;;2.92;;
73132;SDS011;61320;52.008;4.530;2022-11-15T11:44:07;2.92;;;2.82;;
73132;SDS011;61320;52.008;4.530;2022-11-15T11:46:56;2.95;;;2.84;;
73132;SDS011;61320;52.008;4.530;2022-11-15T11:49:31;3.05;;;2.92;;
73132;SDS011;61320;52.008;4.530;2022-11-15T11:52:33;2.92;;;2.79;;
73132;SDS011;61320;52.008;4.530;2022-11-15T11:55:19;2.98;;;2.88;;
73132;SDS011;61320;52.008;4.530;2022-11-15T12:00:22;2.86;;;2.74;;
73132;SDS011;61320;52.008;4.530;2022-11-15T12:05:27;2.70;;;2.60;;
73132;SDS011;61320;52.008;4.530;2022-11-15T12:11:00;2.70;;;2.54;;
73132;SDS011;61320;52.008;4.530;2022-11-15T12:13:42;2.93;;;2.74;;
73132;SDS011;61320;52.008;4.530;2022-11-15T12:16:12;2.73;;;2.54;;
73132;SDS011;61320;52.008;4.530;2022-11-15T12:18:44;2.58;;;2.39;;
73132;SDS011;61320;52.008;4.530;2022-11-15T12:24:43;2.49;;;2.25;;
73132;SDS011;61320;52.008;4.530;2022-11-15T12:30:21;2.48;;;2.18;;
73132;SDS011;61320;52.008;4.530;2022-11-15T12:33:28;2.54;;;2.24;;
73132;SDS011;61320;52.008;4.530;2022-11-15T12:36:01;2.42;;;2.18;;
73132;SDS011;61320;52.008;4.530;2022-11-15T12:45:49;2.49;;;2.14;;
73132;SDS011;61320;52.008;4.530;2022-11-15T13:03:20;2.91;;;2.38;;
73132;SDS011;61320;52.008;4.530;2022-11-15T13:05:54;3.05;;;2.52;;
73132;SDS011;61320;52.008;4.530;2022-11-15T13:08:39;2.29;;;1.92;;
73132;SDS011;61320;52.008;4.530;2022-11-15T13:22:23;2.55;;;2.17;;
73132;SDS011;61320;52.008;4.530;2022-11-15T13:28:11;2.55;;;2.16;;
73132;SDS011;61320;52.008;4.530;2022-11-15T13:33:16;2.19;;;1.82;;
73132;SDS011;61320;52.008;4.530;2022-11-15T13:36:12;2.25;;;1.84;;
73132;SDS011;61320;52.008;4.530;2022-11-15T13:38:57;2.39;;;1.91;;
73132;SDS011;61320;52.008;4.530;2022-11-15T13:41:24;2.59;;;2.04;;
73132;SDS011;61320;52.008;4.530;2022-11-15T13:43:55;2.50;;;2.02;;
73132;SDS011;61320;52.008;4.530;2022-11-15T13:46:26;2.38;;;1.94;;
73132;SDS011;61320;52.008;4.530;2022-11-15T13:59:35;2.38;;;1.99;;
73132;SDS011;61320;52.008;4.530;2022-11-15T14:02:13;2.23;;;1.87;;
73132;SDS011;61320;52.008;4.530;2022-11-15T14:04:53;2.00;;;1.68;;
73132;SDS011;61320;52.008;4.530;2022-11-15T14:07:22;2.20;;;1.83;;
73132;SDS011;61320;52.008;4.530;2022-11-15T14:09:50;2.23;;;1.89;;
73132;SDS011;61320;52.008;4.530;2022-11-15T14:12:32;2.15;;;1.88;;
73132;SDS011;61320;52.008;4.530;2022-11-15T14:15:01;2.16;;;1.92;;
73132;SDS011;61320;52.008;4.530;2022-11-15T14:17:48;2.03;;;1.81;;
73132;SDS011;61320;52.008;4.530;2022-11-15T14:20:25;2.04;;;1.79;;
73132;SDS011;61320;52.008;4.530;2022-11-15T14:22:54;2.11;;;1.80;;
73132;SDS011;61320;52.008;4.530;2022-11-15T14:25:29;2.30;;;1.93;;
73132;SDS011;61320;52.008;4.530;2022-11-15T14:30:37;2.39;;;1.99;;
73132;SDS011;61320;52.008;4.530;2022-11-15T14:33:21;2.20;;;1.83;;
73132;SDS011;61320;52.008;4.530;2022-11-15T14:35:54;2.30;;;1.95;;
73132;SDS011;61320;52.008;4.530;2022-11-15T14:38:25;2.08;;;1.77;;
73132;SDS011;61320;52.008;4.530;2022-11-15T14:40:51;2.25;;;1.93;;
73132;SDS011;61320;52.008;4.530;2022-11-15T14:43:18;2.11;;;1.79;;
73132;SDS011;61320;52.008;4.530;2022-11-15T14:45:44;2.11;;;1.78;;
73132;SDS011;61320;52.008;4.530;2022-11-15T14:48:09;2.10;;;1.82;;
73132;SDS011;61320;52.008;4.530;2022-11-15T14:50:35;2.17;;;1.88;;
73132;SDS011;61320;52.008;4.530;2022-11-15T14:53:01;2.13;;;1.83;;
73132;SDS011;61320;52.008;4.530;2022-11-15T14:55:28;2.02;;;1.75;;
73132;SDS011;61320;52.008;4.530;2022-11-15T14:57:57;2.10;;;1.81;;
73132;SDS011;61320;52.008;4.530;2022-11-15T15:00:27;2.26;;;1.98;;
73132;SDS011;61320;52.008;4.530;2022-11-15T15:02:53;2.24;;;1.99;;
73132;SDS011;61320;52.008;4.530;2022-11-15T15:05:20;1.96;;;1.75;;
73132;SDS011;61320;52.008;4.530;2022-11-15T15:07:58;1.96;;;1.77;;
73132;SDS011;61320;52.008;4.530;2022-11-15T15:10:24;2.13;;;1.90;;
73132;SDS011;61320;52.008;4.530;2022-11-15T15:12:50;2.02;;;1.82;;
73132;SDS011;61320;52.008;4.530;2022-11-15T15:15:17;2.08;;;1.89;;
73132;SDS011;61320;52.008;4.530;2022-11-15T15:17:48;2.06;;;1.90;;
73132;SDS011;61320;52.008;4.530;2022-11-15T15:20:14;1.85;;;1.73;;
73132;SDS011;61320;52.008;4.530;2022-11-15T15:22:43;1.94;;;1.82;;
73132;SDS011;61320;52.008;4.530;2022-11-15T15:25:21;2.05;;;1.92;;
73132;SDS011;61320;52.008;4.530;2022-11-15T15:28:07;1.85;;;1.73;;
73132;SDS011;61320;52.008;4.530;2022-11-15T15:30:32;2.24;;;2.09;;
73132;SDS011;61320;52.008;4.530;2022-11-15T15:32:58;1.89;;;1.76;;
73132;SDS011;61320;52.008;4.530;2022-11-15T15:35:23;2.16;;;2.02;;
73132;SDS011;61320;52.008;4.530;2022-11-15T15:37:57;2.14;;;1.99;;
73132;SDS011;61320;52.008;4.530;2022-11-15T15:40:24;2.35;;;2.18;;
73132;SDS011;61320;52.008;4.530;2022-11-15T15:42:52;2.27;;;2.14;;
73132;SDS011;61320;52.008;4.530;2022-11-15T15:45:18;2.23;;;2.12;;
73132;SDS011;61320;52.008;4.530;2022-11-15T15:47:44;2.21;;;2.12;;
73132;SDS011;61320;52.008;4.530;2022-11-15T15:50:16;2.15;;;2.06;;
73132;SDS011;61320;52.008;4.530;2022-11-15T15:52:56;1.89;;;1.82;;
73132;SDS011;61320;52.008;4.530;2022-11-15T15:55:23;2.07;;;1.99;;
73132;SDS011;61320;52.008;4.530;2022-11-15T15:57:50;2.26;;;2.16;;
73132;SDS011;61320;52.008;4.530;2022-11-15T16:00:18;2.19;;;2.09;;
73132;SDS011;61320;52.008;4.530;2022-11-15T16:02:46;2.42;;;2.31;;
73132;SDS011;61320;52.008;4.530;2022-11-15T16:05:12;2.12;;;2.04;;
73132;SDS011;61320;52.008;4.530;2022-11-15T16:07:38;2.33;;;2.24;;
73132;SDS011;61320;52.008;4.530;2022-11-15T16:10:14;2.10;;;2.06;;
73132;SDS011;61320;52.008;4.530;2022-11-15T16:12:46;2.02;;;2.02;;
73132;SDS011;61320;52.008;4.530;2022-11-15T16:15:22;2.12;;;2.12;;
73132;SDS011;61320;52.008;4.530;2022-11-15T16:18:48;2.35;;;2.35;;
73132;SDS011;61320;52.008;4.530;2022-11-15T16:24:52;2.55;;;2.55;;
73132;SDS011;61320;52.008;4.530;2022-11-15T16:30:40;2.63;;;2.63;;
73132;SDS011;61320;52.008;4.530;2022-11-15T16:33:06;2.67;;;2.66;;
73132;SDS011;61320;52.008;4.530;2022-11-15T16:35:32;2.77;;;2.77;;
73132;SDS011;61320;52.008;4.530;2022-11-15T16:37:57;2.91;;;2.91;;
73132;SDS011;61320;52.008;4.530;2022-11-15T16:42:55;2.87;;;2.87;;
73132;SDS011;61320;52.008;4.530;2022-11-15T16:45:26;2.96;;;2.96;;
73132;SDS011;61320;52.008;4.530;2022-11-15T16:48:11;2.84;;;2.84;;
73132;SDS011;61320;52.008;4.530;2022-11-15T17:25:32;3.76;;;3.76;;
73132;SDS011;61320;52.008;4.530;2022-11-15T17:28:05;3.43;;;3.43;;
73132;SDS011;61320;52.008;4.530;2022-11-15T17:30:39;3.55;;;3.55;;
73132;SDS011;61320;52.008;4.530;2022-11-15T17:33:16;3.84;;;3.84;;
73132;SDS011;61320;52.008;4.530;2022-11-15T17:35:42;3.58;;;3.58;;
73132;SDS011;61320;52.008;4.530;2022-11-15T17:38:07;4.00;;;4.00;;
73132;SDS011;61320;52.008;4.530;2022-11-15T17:40:33;4.42;;;4.42;;
73132;SDS011;61320;52.008;4.530;2022-11-15T17:42:59;4.55;;;4.55;;
73132;SDS011;61320;52.008;4.530;2022-11-15T17:45:24;4.59;;;4.59;;
73132;SDS011;61320;52.008;4.530;2022-11-15T17:47:49;4.79;;;4.79;;
73132;SDS011;61320;52.008;4.530;2022-11-15T17:50:15;4.62;;;4.62;;
73132;SDS011;61320;52.008;4.530;2022-11-15T17:52:42;4.43;;;4.43;;
73132;SDS011;61320;52.008;4.530;2022-11-15T17:55:07;4.68;;;4.68;;
73132;SDS011;61320;52.008;4.530;2022-11-15T17:57:36;4.67;;;4.67;;
73132;SDS011;61320;52.008;4.530;2022-11-15T18:00:02;4.90;;;4.90;;
73132;SDS011;61320;52.008;4.530;2022-11-15T18:02:29;4.60;;;4.60;;
73132;SDS011;61320;52.008;4.530;2022-11-15T18:04:54;4.80;;;4.80;;
73132;SDS011;61320;52.008;4.530;2022-11-15T18:07:27;4.57;;;4.57;;
73132;SDS011;61320;52.008;4.530;2022-11-15T18:09:53;5.01;;;5.01;;
73132;SDS011;61320;52.008;4.530;2022-11-15T18:12:18;4.78;;;4.78;;
73132;SDS011;61320;52.008;4.530;2022-11-15T18:14:47;4.81;;;4.81;;
73132;SDS011;61320;52.008;4.530;2022-11-15T18:17:12;4.77;;;4.77;;